sensor_id;sensor_type;location;lat;lon;timestamp;temperature;humidity
78896;HTU21D;68284;59.124;37.910;2023-12-28T00:01:48;-2.44;77.51
78896;HTU21D;68284;59.124;37.910;2023-12-28T00:04:16;-2.36;77.52
78896;HTU21D;68284;59.124;37.910;2023-12-28T00:06:43;-2.33;77.27
78896;HTU21D;68284;59.124;37.910;2023-12-28T00:09:09;-2.33;77.11
78896;HTU21D;68284;59.124;37.910;2023-12-28T00:11:36;-2.35;76.99
78896;HTU21D;68284;59.124;37.910;2023-12-28T00:14:02;-2.35;77.05
78896;HTU21D;68284;59.124;37.910;2023-12-28T00:16:30;-2.33;77.15
78896;HTU21D;68284;59.124;37.910;2023-12-28T00:18:58;-2.31;77.18
78896;HTU21D;68284;59.124;37.910;2023-12-28T00:21:25;-2.30;77.24
78896;HTU21D;68284;59.124;37.910;2023-12-28T00:23:51;-2.27;77.22
78896;HTU21D;68284;59.124;37.910;2023-12-28T00:26:18;-2.22;77.17
78896;HTU21D;68284;59.124;37.910;2023-12-28T00:28:54;-2.18;77.18
78896;HTU21D;68284;59.124;37.910;2023-12-28T00:31:21;-2.13;77.14
78896;HTU21D;68284;59.124;37.910;2023-12-28T00:33:47;-2.09;77.16
78896;HTU21D;68284;59.124;37.910;2023-12-28T00:36:16;-2.08;77.02
78896;HTU21D;68284;59.124;37.910;2023-12-28T00:38:43;-2.06;76.87
78896;HTU21D;68284;59.124;37.910;2023-12-28T00:41:09;-2.14;76.50
78896;HTU21D;68284;59.124;37.910;2023-12-28T00:43:36;-2.23;76.41
78896;HTU21D;68284;59.124;37.910;2023-12-28T00:46:04;-2.33;76.35
78896;HTU21D;68284;59.124;37.910;2023-12-28T00:48:30;-2.45;76.39
78896;HTU21D;68284;59.124;37.910;2023-12-28T00:50:57;-2.58;76.57
78896;HTU21D;68284;59.124;37.910;2023-12-28T00:53:26;-2.65;76.86
78896;HTU21D;68284;59.124;37.910;2023-12-28T00:55:53;-2.71;77.04
78896;HTU21D;68284;59.124;37.910;2023-12-28T00:58:19;-2.75;77.08
78896;HTU21D;68284;59.124;37.910;2023-12-28T01:00:46;-2.78;77.11
78896;HTU21D;68284;59.124;37.910;2023-12-28T01:03:13;-2.82;77.12
78896;HTU21D;68284;59.124;37.910;2023-12-28T01:05:40;-2.84;77.15
78896;HTU21D;68284;59.124;37.910;2023-12-28T01:08:07;-2.89;77.09
78896;HTU21D;68284;59.124;37.910;2023-12-28T01:10:33;-2.92;77.19
78896;HTU21D;68284;59.124;37.910;2023-12-28T01:13:00;-2.92;77.22
78896;HTU21D;68284;59.124;37.910;2023-12-28T01:15:26;-2.92;77.21
78896;HTU21D;68284;59.124;37.910;2023-12-28T01:17:55;-2.92;77.19
78896;HTU21D;68284;59.124;37.910;2023-12-28T01:20:21;-2.93;77.21
78896;HTU21D;68284;59.124;37.910;2023-12-28T01:22:48;-2.90;77.27
78896;HTU21D;68284;59.124;37.910;2023-12-28T01:25:16;-2.89;77.22
78896;HTU21D;68284;59.124;37.910;2023-12-28T01:27:42;-2.87;77.08
78896;HTU21D;68284;59.124;37.910;2023-12-28T01:30:10;-2.87;77.04
78896;HTU21D;68284;59.124;37.910;2023-12-28T01:32:36;-2.89;76.99
78896;HTU21D;68284;59.124;37.910;2023-12-28T01:35:04;-2.91;77.05
78896;HTU21D;68284;59.124;37.910;2023-12-28T01:37:31;-2.92;77.11
78896;HTU21D;68284;59.124;37.910;2023-12-28T01:40:01;-2.94;77.11
78896;HTU21D;68284;59.124;37.910;2023-12-28T01:42:29;-2.96;77.10
78896;HTU21D;68284;59.124;37.910;2023-12-28T01:44:57;-3.00;77.18
78896;HTU21D;68284;59.124;37.910;2023-12-28T01:47:28;-3.04;77.11
78896;HTU21D;68284;59.124;37.910;2023-12-28T01:49:56;-3.10;77.18
78896;HTU21D;68284;59.124;37.910;2023-12-28T01:52:23;-3.13;77.23
78896;HTU21D;68284;59.124;37.910;2023-12-28T01:54:50;-3.18;77.31
78896;HTU21D;68284;59.124;37.910;2023-12-28T01:57:17;-3.22;77.22
78896;HTU21D;68284;59.124;37.910;2023-12-28T01:59:45;-3.30;77.28
78896;HTU21D;68284;59.124;37.910;2023-12-28T02:02:12;-3.35;77.34
78896;HTU21D;68284;59.124;37.910;2023-12-28T02:04:42;-3.39;77.37
78896;HTU21D;68284;59.124;37.910;2023-12-28T02:07:10;-3.42;77.51
78896;HTU21D;68284;59.124;37.910;2023-12-28T02:09:39;-3.47;77.51
78896;HTU21D;68284;59.124;37.910;2023-12-28T02:12:06;-3.51;77.49
78896;HTU21D;68284;59.124;37.910;2023-12-28T02:14:34;-3.56;77.56
78896;HTU21D;68284;59.124;37.910;2023-12-28T02:17:04;-3.58;77.69
78896;HTU21D;68284;59.124;37.910;2023-12-28T02:22:01;-3.62;77.79
78896;HTU21D;68284;59.124;37.910;2023-12-28T02:24:28;-3.62;77.86
78896;HTU21D;68284;59.124;37.910;2023-12-28T02:26:55;-3.60;77.94
78896;HTU21D;68284;59.124;37.910;2023-12-28T02:29:21;-3.57;77.98
78896;HTU21D;68284;59.124;37.910;2023-12-28T02:31:58;-3.53;78.00
78896;HTU21D;68284;59.124;37.910;2023-12-28T02:34:33;-3.47;77.92
78896;HTU21D;68284;59.124;37.910;2023-12-28T02:37:01;-3.45;77.86
78896;HTU21D;68284;59.124;37.910;2023-12-28T02:39:28;-3.42;77.83
78896;HTU21D;68284;59.124;37.910;2023-12-28T02:41:55;-3.39;77.94
78896;HTU21D;68284;59.124;37.910;2023-12-28T02:44:22;-3.36;78.01
78896;HTU21D;68284;59.124;37.910;2023-12-28T02:46:48;-3.32;77.97
78896;HTU21D;68284;59.124;37.910;2023-12-28T02:49:15;-3.31;77.97
78896;HTU21D;68284;59.124;37.910;2023-12-28T02:51:41;-3.26;77.93
78896;HTU21D;68284;59.124;37.910;2023-12-28T02:54:10;-3.24;77.95
78896;HTU21D;68284;59.124;37.910;2023-12-28T02:56:36;-3.19;78.01
78896;HTU21D;68284;59.124;37.910;2023-12-28T02:59:03;-3.12;78.00
78896;HTU21D;68284;59.124;37.910;2023-12-28T03:01:30;-3.05;77.98
78896;HTU21D;68284;59.124;37.910;2023-12-28T03:03:56;-2.98;77.85
78896;HTU21D;68284;59.124;37.910;2023-12-28T03:06:23;-2.91;77.72
78896;HTU21D;68284;59.124;37.910;2023-12-28T03:08:50;-2.82;77.73
78896;HTU21D;68284;59.124;37.910;2023-12-28T03:11:16;-2.76;77.79
78896;HTU21D;68284;59.124;37.910;2023-12-28T03:13:43;-2.71;77.86
78896;HTU21D;68284;59.124;37.910;2023-12-28T03:16:09;-2.66;77.76
78896;HTU21D;68284;59.124;37.910;2023-12-28T03:18:36;-2.60;77.65
78896;HTU21D;68284;59.124;37.910;2023-12-28T03:21:02;-2.56;77.56
78896;HTU21D;68284;59.124;37.910;2023-12-28T03:23:29;-2.51;77.46
78896;HTU21D;68284;59.124;37.910;2023-12-28T03:25:55;-2.48;77.16
78896;HTU21D;68284;59.124;37.910;2023-12-28T03:28:22;-2.48;76.90
78896;HTU21D;68284;59.124;37.910;2023-12-28T03:30:49;-2.49;76.87
78896;HTU21D;68284;59.124;37.910;2023-12-28T03:33:15;-2.49;76.83
78896;HTU21D;68284;59.124;37.910;2023-12-28T03:35:42;-2.49;76.55
78896;HTU21D;68284;59.124;37.910;2023-12-28T03:38:08;-2.52;76.52
78896;HTU21D;68284;59.124;37.910;2023-12-28T03:40:34;-2.53;76.53
78896;HTU21D;68284;59.124;37.910;2023-12-28T03:43:01;-2.56;76.37
78896;HTU21D;68284;59.124;37.910;2023-12-28T03:45:27;-2.59;76.21
78896;HTU21D;68284;59.124;37.910;2023-12-28T03:47:55;-2.62;76.28
78896;HTU21D;68284;59.124;37.910;2023-12-28T03:50:22;-2.62;76.31
78896;HTU21D;68284;59.124;37.910;2023-12-28T03:52:50;-2.65;76.24
78896;HTU21D;68284;59.124;37.910;2023-12-28T03:55:17;-2.65;76.41
78896;HTU21D;68284;59.124;37.910;2023-12-28T03:57:43;-2.64;76.53
78896;HTU21D;68284;59.124;37.910;2023-12-28T04:00:12;-2.62;76.57
78896;HTU21D;68284;59.124;37.910;2023-12-28T04:02:39;-2.59;76.57
78896;HTU21D;68284;59.124;37.910;2023-12-28T04:05:06;-2.57;76.55
78896;HTU21D;68284;59.124;37.910;2023-12-28T04:07:35;-2.51;76.53
78896;HTU21D;68284;59.124;37.910;2023-12-28T04:10:05;-2.51;76.27
78896;HTU21D;68284;59.124;37.910;2023-12-28T04:12:33;-2.57;76.28
78896;HTU21D;68284;59.124;37.910;2023-12-28T04:15:00;-2.56;76.47
78896;HTU21D;68284;59.124;37.910;2023-12-28T04:17:28;-2.54;76.53
78896;HTU21D;68284;59.124;37.910;2023-12-28T04:19:54;-2.57;76.39
78896;HTU21D;68284;59.124;37.910;2023-12-28T04:22:21;-2.60;76.40
78896;HTU21D;68284;59.124;37.910;2023-12-28T04:24:47;-2.63;76.57
78896;HTU21D;68284;59.124;37.910;2023-12-28T04:27:14;-2.67;76.57
78896;HTU21D;68284;59.124;37.910;2023-12-28T04:29:41;-2.68;76.61
78896;HTU21D;68284;59.124;37.910;2023-12-28T04:32:07;-2.71;76.51
78896;HTU21D;68284;59.124;37.910;2023-12-28T04:34:35;-2.76;76.53
78896;HTU21D;68284;59.124;37.910;2023-12-28T04:37:02;-2.81;76.53
78896;HTU21D;68284;59.124;37.910;2023-12-28T04:39:32;-2.84;76.63
78896;HTU21D;68284;59.124;37.910;2023-12-28T04:41:59;-2.90;76.53
78896;HTU21D;68284;59.124;37.910;2023-12-28T04:44:27;-2.96;76.54
78896;HTU21D;68284;59.124;37.910;2023-12-28T04:46:56;-3.02;76.57
78896;HTU21D;68284;59.124;37.910;2023-12-28T04:49:22;-3.07;76.54
78896;HTU21D;68284;59.124;37.910;2023-12-28T04:51:49;-3.12;76.69
78896;HTU21D;68284;59.124;37.910;2023-12-28T04:54:15;-3.13;76.82
78896;HTU21D;68284;59.124;37.910;2023-12-28T04:56:45;-3.15;76.85
78896;HTU21D;68284;59.124;37.910;2023-12-28T04:59:13;-3.11;76.86
78896;HTU21D;68284;59.124;37.910;2023-12-28T05:01:44;-3.10;76.87
78896;HTU21D;68284;59.124;37.910;2023-12-28T05:04:11;-3.06;76.94
78896;HTU21D;68284;59.124;37.910;2023-12-28T05:06:37;-3.02;76.85
78896;HTU21D;68284;59.124;37.910;2023-12-28T05:09:04;-3.00;76.55
78896;HTU21D;68284;59.124;37.910;2023-12-28T05:11:30;-3.02;76.26
78896;HTU21D;68284;59.124;37.910;2023-12-28T05:13:58;-3.07;76.25
78896;HTU21D;68284;59.124;37.910;2023-12-28T05:16:25;-3.11;76.21
78896;HTU21D;68284;59.124;37.910;2023-12-28T05:18:52;-3.18;76.12
78896;HTU21D;68284;59.124;37.910;2023-12-28T05:21:21;-3.22;76.21
78896;HTU21D;68284;59.124;37.910;2023-12-28T05:23:49;-3.23;76.29
78896;HTU21D;68284;59.124;37.910;2023-12-28T05:26:16;-3.22;76.84
78896;HTU21D;68284;59.124;37.910;2023-12-28T05:28:55;-3.15;76.06
78896;HTU21D;68284;59.124;37.910;2023-12-28T05:31:23;-3.19;75.76
78896;HTU21D;68284;59.124;37.910;2023-12-28T05:33:50;-3.21;75.81
78896;HTU21D;68284;59.124;37.910;2023-12-28T05:36:16;-3.23;75.41
78896;HTU21D;68284;59.124;37.910;2023-12-28T05:38:42;-3.27;75.46
78896;HTU21D;68284;59.124;37.910;2023-12-28T05:41:09;-3.28;75.50
78896;HTU21D;68284;59.124;37.910;2023-12-28T05:43:38;-3.30;75.40
78896;HTU21D;68284;59.124;37.910;2023-12-28T05:46:05;-3.31;75.44
78896;HTU21D;68284;59.124;37.910;2023-12-28T05:48:31;-3.31;75.47
78896;HTU21D;68284;59.124;37.910;2023-12-28T05:50:58;-3.32;75.52
78896;HTU21D;68284;59.124;37.910;2023-12-28T05:53:26;-3.31;75.57
78896;HTU21D;68284;59.124;37.910;2023-12-28T05:55:54;-3.27;75.65
78896;HTU21D;68284;59.124;37.910;2023-12-28T05:58:20;-3.23;75.60
78896;HTU21D;68284;59.124;37.910;2023-12-28T06:00:48;-3.23;75.38
78896;HTU21D;68284;59.124;37.910;2023-12-28T06:03:15;-3.24;75.34
78896;HTU21D;68284;59.124;37.910;2023-12-28T06:05:42;-3.27;75.18
78896;HTU21D;68284;59.124;37.910;2023-12-28T06:08:09;-3.31;75.34
78896;HTU21D;68284;59.124;37.910;2023-12-28T06:10:38;-3.31;75.50
78896;HTU21D;68284;59.124;37.910;2023-12-28T06:13:05;-3.31;75.51
78896;HTU21D;68284;59.124;37.910;2023-12-28T06:15:32;-3.30;75.57
78896;HTU21D;68284;59.124;37.910;2023-12-28T06:18:00;-3.32;75.38
78896;HTU21D;68284;59.124;37.910;2023-12-28T06:20:27;-3.33;75.50
78896;HTU21D;68284;59.124;37.910;2023-12-28T06:22:56;-3.31;75.57
78896;HTU21D;68284;59.124;37.910;2023-12-28T06:25:30;-3.28;75.65
78896;HTU21D;68284;59.124;37.910;2023-12-28T06:27:56;-3.25;75.74
78896;HTU21D;68284;59.124;37.910;2023-12-28T06:30:23;-3.24;75.70
78896;HTU21D;68284;59.124;37.910;2023-12-28T06:32:50;-3.22;75.70
78896;HTU21D;68284;59.124;37.910;2023-12-28T06:35:17;-3.20;75.70
78896;HTU21D;68284;59.124;37.910;2023-12-28T06:37:43;-3.19;75.70
78896;HTU21D;68284;59.124;37.910;2023-12-28T06:40:10;-3.15;75.76
78896;HTU21D;68284;59.124;37.910;2023-12-28T06:42:37;-3.12;75.58
78896;HTU21D;68284;59.124;37.910;2023-12-28T06:45:05;-3.13;75.64
78896;HTU21D;68284;59.124;37.910;2023-12-28T06:47:43;-3.07;75.76
78896;HTU21D;68284;59.124;37.910;2023-12-28T06:50:09;-3.04;75.72
78896;HTU21D;68284;59.124;37.910;2023-12-28T06:52:37;-3.01;75.60
78896;HTU21D;68284;59.124;37.910;2023-12-28T06:55:04;-3.03;75.49
78896;HTU21D;68284;59.124;37.910;2023-12-28T06:57:32;-3.09;75.50
78896;HTU21D;68284;59.124;37.910;2023-12-28T07:00:00;-3.12;75.63
78896;HTU21D;68284;59.124;37.910;2023-12-28T07:02:31;-3.17;75.77
78896;HTU21D;68284;59.124;37.910;2023-12-28T07:04:57;-3.19;75.93
78896;HTU21D;68284;59.124;37.910;2023-12-28T07:07:24;-3.22;76.02
78896;HTU21D;68284;59.124;37.910;2023-12-28T07:09:51;-3.21;76.17
78896;HTU21D;68284;59.124;37.910;2023-12-28T07:12:17;-3.20;76.21
78896;HTU21D;68284;59.124;37.910;2023-12-28T07:14:46;-3.19;76.23
78896;HTU21D;68284;59.124;37.910;2023-12-28T07:17:14;-3.19;76.26
78896;HTU21D;68284;59.124;37.910;2023-12-28T07:19:45;-3.19;76.27
78896;HTU21D;68284;59.124;37.910;2023-12-28T07:22:12;-3.19;76.44
78896;HTU21D;68284;59.124;37.910;2023-12-28T07:24:38;-3.18;76.51
78896;HTU21D;68284;59.124;37.910;2023-12-28T07:27:05;-3.15;76.45
78896;HTU21D;68284;59.124;37.910;2023-12-28T07:29:33;-3.16;76.42
78896;HTU21D;68284;59.124;37.910;2023-12-28T07:32:00;-3.17;76.53
78896;HTU21D;68284;59.124;37.910;2023-12-28T07:34:27;-3.19;76.54
78896;HTU21D;68284;59.124;37.910;2023-12-28T07:36:55;-3.21;76.58
78896;HTU21D;68284;59.124;37.910;2023-12-28T07:39:24;-3.21;76.64
78896;HTU21D;68284;59.124;37.910;2023-12-28T07:41:52;-3.21;76.78
78896;HTU21D;68284;59.124;37.910;2023-12-28T07:44:22;-3.20;76.84
78896;HTU21D;68284;59.124;37.910;2023-12-28T07:46:54;-3.19;76.89
78896;HTU21D;68284;59.124;37.910;2023-12-28T07:49:21;-3.13;76.96
78896;HTU21D;68284;59.124;37.910;2023-12-28T07:51:48;-3.13;76.98
78896;HTU21D;68284;59.124;37.910;2023-12-28T07:54:15;-3.12;76.81
78896;HTU21D;68284;59.124;37.910;2023-12-28T07:56:43;-3.12;76.80
78896;HTU21D;68284;59.124;37.910;2023-12-28T07:59:11;-3.12;76.86
78896;HTU21D;68284;59.124;37.910;2023-12-28T08:01:38;-3.12;76.89
78896;HTU21D;68284;59.124;37.910;2023-12-28T08:04:08;-3.12;76.97
78896;HTU21D;68284;59.124;37.910;2023-12-28T08:06:35;-3.12;77.05
78896;HTU21D;68284;59.124;37.910;2023-12-28T08:09:02;-3.12;77.09
78896;HTU21D;68284;59.124;37.910;2023-12-28T08:11:29;-3.12;77.15
78896;HTU21D;68284;59.124;37.910;2023-12-28T08:13:55;-3.11;77.18
78896;HTU21D;68284;59.124;37.910;2023-12-28T08:16:21;-3.09;77.29
78896;HTU21D;68284;59.124;37.910;2023-12-28T08:18:49;-3.03;77.37
78896;HTU21D;68284;59.124;37.910;2023-12-28T08:21:16;-3.01;77.26
78896;HTU21D;68284;59.124;37.910;2023-12-28T08:23:44;-2.97;77.16
78896;HTU21D;68284;59.124;37.910;2023-12-28T08:26:12;-2.96;77.20
78896;HTU21D;68284;59.124;37.910;2023-12-28T08:28:42;-2.97;77.11
78896;HTU21D;68284;59.124;37.910;2023-12-28T08:31:11;-2.98;77.21
78896;HTU21D;68284;59.124;37.910;2023-12-28T08:33:38;-2.95;77.35
78896;HTU21D;68284;59.124;37.910;2023-12-28T08:36:07;-2.93;77.32
78896;HTU21D;68284;59.124;37.910;2023-12-28T08:38:34;-2.89;77.36
78896;HTU21D;68284;59.124;37.910;2023-12-28T08:41:03;-2.84;77.36
78896;HTU21D;68284;59.124;37.910;2023-12-28T08:43:36;-2.81;77.43
78896;HTU21D;68284;59.124;37.910;2023-12-28T08:46:02;-2.80;77.34
78896;HTU21D;68284;59.124;37.910;2023-12-28T08:48:30;-2.76;77.24
78896;HTU21D;68284;59.124;37.910;2023-12-28T08:50:59;-2.72;77.22
78896;HTU21D;68284;59.124;37.910;2023-12-28T08:53:29;-2.72;77.24
78896;HTU21D;68284;59.124;37.910;2023-12-28T08:56:01;-2.72;77.22
78896;HTU21D;68284;59.124;37.910;2023-12-28T08:58:35;-2.72;77.29
78896;HTU21D;68284;59.124;37.910;2023-12-28T09:01:04;-2.69;77.35
78896;HTU21D;68284;59.124;37.910;2023-12-28T09:03:34;-2.68;77.47
78896;HTU21D;68284;59.124;37.910;2023-12-28T09:06:02;-2.64;77.45
78896;HTU21D;68284;59.124;37.910;2023-12-28T09:08:29;-2.60;77.39
78896;HTU21D;68284;59.124;37.910;2023-12-28T09:11:02;-2.58;77.37
78896;HTU21D;68284;59.124;37.910;2023-12-28T09:13:33;-2.56;77.38
78896;HTU21D;68284;59.124;37.910;2023-12-28T09:16:01;-2.53;77.44
78896;HTU21D;68284;59.124;37.910;2023-12-28T09:18:31;-2.51;77.50
78896;HTU21D;68284;59.124;37.910;2023-12-28T09:20:57;-2.50;77.48
78896;HTU21D;68284;59.124;37.910;2023-12-28T09:23:24;-2.48;77.57
78896;HTU21D;68284;59.124;37.910;2023-12-28T09:25:51;-2.46;77.57
78896;HTU21D;68284;59.124;37.910;2023-12-28T09:28:17;-2.42;77.51
78896;HTU21D;68284;59.124;37.910;2023-12-28T09:30:44;-2.36;77.56
78896;HTU21D;68284;59.124;37.910;2023-12-28T09:33:10;-2.32;77.43
78896;HTU21D;68284;59.124;37.910;2023-12-28T09:35:37;-2.28;77.27
78896;HTU21D;68284;59.124;37.910;2023-12-28T09:38:03;-2.26;77.18
78896;HTU21D;68284;59.124;37.910;2023-12-28T09:40:30;-2.26;77.18
78896;HTU21D;68284;59.124;37.910;2023-12-28T09:43:07;-2.23;77.19
78896;HTU21D;68284;59.124;37.910;2023-12-28T09:45:35;-2.18;77.25
78896;HTU21D;68284;59.124;37.910;2023-12-28T09:48:05;-2.16;77.23
78896;HTU21D;68284;59.124;37.910;2023-12-28T09:50:32;-2.14;77.06
78896;HTU21D;68284;59.124;37.910;2023-12-28T09:53:00;-2.13;77.05
78896;HTU21D;68284;59.124;37.910;2023-12-28T09:55:26;-2.13;76.97
78896;HTU21D;68284;59.124;37.910;2023-12-28T09:57:54;-2.16;76.97
78896;HTU21D;68284;59.124;37.910;2023-12-28T10:00:22;-2.19;77.05
78896;HTU21D;68284;59.124;37.910;2023-12-28T10:02:48;-2.20;77.22
78896;HTU21D;68284;59.124;37.910;2023-12-28T10:05:16;-2.24;77.11
78896;HTU21D;68284;59.124;37.910;2023-12-28T10:07:43;-2.26;77.22
78896;HTU21D;68284;59.124;37.910;2023-12-28T10:10:10;-2.24;77.25
78896;HTU21D;68284;59.124;37.910;2023-12-28T10:12:41;-2.27;77.17
78896;HTU21D;68284;59.124;37.910;2023-12-28T10:15:07;-2.30;77.31
78896;HTU21D;68284;59.124;37.910;2023-12-28T10:17:35;-2.32;77.37
78896;HTU21D;68284;59.124;37.910;2023-12-28T10:20:07;-2.32;77.40
78896;HTU21D;68284;59.124;37.910;2023-12-28T10:22:49;-2.31;77.44
78896;HTU21D;68284;59.124;37.910;2023-12-28T10:25:18;-2.32;77.47
78896;HTU21D;68284;59.124;37.910;2023-12-28T10:27:50;-2.31;77.44
78896;HTU21D;68284;59.124;37.910;2023-12-28T10:30:24;-2.29;77.61
78896;HTU21D;68284;59.124;37.910;2023-12-28T10:32:52;-2.27;77.50
78896;HTU21D;68284;59.124;37.910;2023-12-28T10:35:27;-2.29;77.47
78896;HTU21D;68284;59.124;37.910;2023-12-28T10:37:59;-2.29;77.52
78896;HTU21D;68284;59.124;37.910;2023-12-28T10:40:26;-2.29;77.51
78896;HTU21D;68284;59.124;37.910;2023-12-28T10:43:06;-2.26;77.60
78896;HTU21D;68284;59.124;37.910;2023-12-28T10:45:39;-2.24;77.60
78896;HTU21D;68284;59.124;37.910;2023-12-28T10:48:11;-2.20;77.56
78896;HTU21D;68284;59.124;37.910;2023-12-28T10:50:51;-2.20;77.46
78896;HTU21D;68284;59.124;37.910;2023-12-28T10:58:50;-2.27;77.60
78896;HTU21D;68284;59.124;37.910;2023-12-28T11:01:30;-2.27;77.66
78896;HTU21D;68284;59.124;37.910;2023-12-28T11:06:59;-2.26;77.73
78896;HTU21D;68284;59.124;37.910;2023-12-28T11:09:31;-2.26;77.73
78896;HTU21D;68284;59.124;37.910;2023-12-28T11:12:04;-2.26;77.82
78896;HTU21D;68284;59.124;37.910;2023-12-28T11:14:39;-2.26;77.71
78896;HTU21D;68284;59.124;37.910;2023-12-28T11:17:12;-2.28;77.70
78896;HTU21D;68284;59.124;37.910;2023-12-28T11:19:46;-2.29;77.72
78896;HTU21D;68284;59.124;37.910;2023-12-28T11:22:21;-2.31;77.79
78896;HTU21D;68284;59.124;37.910;2023-12-28T11:24:56;-2.32;77.92
78896;HTU21D;68284;59.124;37.910;2023-12-28T11:27:23;-2.30;77.98
78896;HTU21D;68284;59.124;37.910;2023-12-28T11:29:54;-2.28;77.95
78896;HTU21D;68284;59.124;37.910;2023-12-28T11:32:21;-2.24;77.97
78896;HTU21D;68284;59.124;37.910;2023-12-28T11:34:58;-2.23;77.79
78896;HTU21D;68284;59.124;37.910;2023-12-28T11:37:27;-2.24;77.72
78896;HTU21D;68284;59.124;37.910;2023-12-28T11:40:31;-2.23;77.85
78896;HTU21D;68284;59.124;37.910;2023-12-28T11:43:27;-2.22;77.85
78896;HTU21D;68284;59.124;37.910;2023-12-28T11:46:07;-2.21;77.79
78896;HTU21D;68284;59.124;37.910;2023-12-28T11:49:11;-2.20;77.72
78896;HTU21D;68284;59.124;37.910;2023-12-28T11:52:32;-2.24;77.75
78896;HTU21D;68284;59.124;37.910;2023-12-28T11:55:10;-2.24;77.88
78896;HTU21D;68284;59.124;37.910;2023-12-28T11:57:39;-2.24;77.89
78896;HTU21D;68284;59.124;37.910;2023-12-28T12:00:16;-2.22;77.89
78896;HTU21D;68284;59.124;37.910;2023-12-28T12:02:50;-2.24;77.89
78896;HTU21D;68284;59.124;37.910;2023-12-28T12:05:23;-2.24;77.89
78896;HTU21D;68284;59.124;37.910;2023-12-28T12:07:58;-2.21;77.99
78896;HTU21D;68284;59.124;37.910;2023-12-28T12:10:40;-2.20;77.91
78896;HTU21D;68284;59.124;37.910;2023-12-28T12:13:12;-2.19;77.90
78896;HTU21D;68284;59.124;37.910;2023-12-28T12:15:44;-2.18;77.87
78896;HTU21D;68284;59.124;37.910;2023-12-28T12:18:18;-2.17;77.90
78896;HTU21D;68284;59.124;37.910;2023-12-28T12:21:25;-2.14;77.66
78896;HTU21D;68284;59.124;37.910;2023-12-28T12:24:28;-2.16;77.63
78896;HTU21D;68284;59.124;37.910;2023-12-28T12:27:06;-2.17;77.55
78896;HTU21D;68284;59.124;37.910;2023-12-28T12:29:42;-2.20;77.50
78896;HTU21D;68284;59.124;37.910;2023-12-28T12:32:19;-2.22;77.53
78896;HTU21D;68284;59.124;37.910;2023-12-28T12:34:54;-2.27;77.63
78896;HTU21D;68284;59.124;37.910;2023-12-28T12:37:50;-2.26;77.61
78896;HTU21D;68284;59.124;37.910;2023-12-28T12:40:52;-2.28;77.47
78896;HTU21D;68284;59.124;37.910;2023-12-28T12:43:47;-2.28;77.50
78896;HTU21D;68284;59.124;37.910;2023-12-28T12:46:26;-2.30;77.54
78896;HTU21D;68284;59.124;37.910;2023-12-28T12:48:56;-2.28;77.43
78896;HTU21D;68284;59.124;37.910;2023-12-28T12:51:34;-2.29;77.43
78896;HTU21D;68284;59.124;37.910;2023-12-28T12:54:10;-2.30;77.33
78896;HTU21D;68284;59.124;37.910;2023-12-28T12:56:59;-2.34;77.33
78896;HTU21D;68284;59.124;37.910;2023-12-28T12:59:30;-2.35;77.38
78896;HTU21D;68284;59.124;37.910;2023-12-28T13:02:01;-2.36;77.53
78896;HTU21D;68284;59.124;37.910;2023-12-28T13:07:48;-2.36;77.61
78896;HTU21D;68284;59.124;37.910;2023-12-28T13:10:35;-2.36;77.63
78896;HTU21D;68284;59.124;37.910;2023-12-28T13:13:07;-2.36;77.67
78896;HTU21D;68284;59.124;37.910;2023-12-28T13:15:39;-2.37;77.78
78896;HTU21D;68284;59.124;37.910;2023-12-28T13:18:10;-2.37;77.93
78896;HTU21D;68284;59.124;37.910;2023-12-28T13:20:45;-2.34;78.01
78896;HTU21D;68284;59.124;37.910;2023-12-28T13:23:17;-2.33;77.99
78896;HTU21D;68284;59.124;37.910;2023-12-28T13:26:13;-2.33;77.98
78896;HTU21D;68284;59.124;37.910;2023-12-28T13:28:40;-2.35;77.95
78896;HTU21D;68284;59.124;37.910;2023-12-28T13:31:09;-2.34;77.98
78896;HTU21D;68284;59.124;37.910;2023-12-28T13:33:51;-2.38;77.95
78896;HTU21D;68284;59.124;37.910;2023-12-28T13:36:22;-2.42;77.93
78896;HTU21D;68284;59.124;37.910;2023-12-28T13:38:49;-2.45;77.94
78896;HTU21D;68284;59.124;37.910;2023-12-28T13:41:17;-2.49;78.11
78896;HTU21D;68284;59.124;37.910;2023-12-28T13:43:47;-2.51;78.08
78896;HTU21D;68284;59.124;37.910;2023-12-28T13:46:13;-2.53;78.08
78896;HTU21D;68284;59.124;37.910;2023-12-28T13:48:40;-2.57;78.11
78896;HTU21D;68284;59.124;37.910;2023-12-28T13:51:06;-2.59;78.24
78896;HTU21D;68284;59.124;37.910;2023-12-28T13:53:35;-2.61;78.19
78896;HTU21D;68284;59.124;37.910;2023-12-28T13:56:09;-2.64;78.19
78896;HTU21D;68284;59.124;37.910;2023-12-28T13:58:36;-2.67;78.34
78896;HTU21D;68284;59.124;37.910;2023-12-28T14:01:04;-2.67;78.37
78896;HTU21D;68284;59.124;37.910;2023-12-28T14:03:31;-2.67;78.31
78896;HTU21D;68284;59.124;37.910;2023-12-28T14:06:00;-2.68;78.27
78896;HTU21D;68284;59.124;37.910;2023-12-28T14:08:28;-2.75;78.33
78896;HTU21D;68284;59.124;37.910;2023-12-28T14:10:54;-2.77;78.47
78896;HTU21D;68284;59.124;37.910;2023-12-28T14:13:23;-2.79;78.45
78896;HTU21D;68284;59.124;37.910;2023-12-28T14:15:51;-2.82;78.53
78896;HTU21D;68284;59.124;37.910;2023-12-28T14:18:17;-2.82;78.48
78896;HTU21D;68284;59.124;37.910;2023-12-28T14:20:44;-2.82;78.44
78896;HTU21D;68284;59.124;37.910;2023-12-28T14:23:11;-2.83;78.43
78896;HTU21D;68284;59.124;37.910;2023-12-28T14:25:39;-2.84;78.46
78896;HTU21D;68284;59.124;37.910;2023-12-28T14:28:09;-2.83;78.53
78896;HTU21D;68284;59.124;37.910;2023-12-28T14:30:40;-2.80;78.59
78896;HTU21D;68284;59.124;37.910;2023-12-28T14:33:07;-2.78;78.50
78896;HTU21D;68284;59.124;37.910;2023-12-28T14:35:35;-2.78;78.50
78896;HTU21D;68284;59.124;37.910;2023-12-28T14:38:05;-2.78;78.50
78896;HTU21D;68284;59.124;37.910;2023-12-28T14:40:37;-2.77;78.57
78896;HTU21D;68284;59.124;37.910;2023-12-28T14:43:09;-2.75;78.51
78896;HTU21D;68284;59.124;37.910;2023-12-28T14:45:38;-2.78;78.51
78896;HTU21D;68284;59.124;37.910;2023-12-28T14:48:06;-2.78;78.53
78896;HTU21D;68284;59.124;37.910;2023-12-28T14:50:33;-2.78;78.65
78896;HTU21D;68284;59.124;37.910;2023-12-28T14:53:01;-2.80;78.59
78896;HTU21D;68284;59.124;37.910;2023-12-28T14:55:30;-2.81;78.69
78896;HTU21D;68284;59.124;37.910;2023-12-28T14:57:58;-2.81;78.77
78896;HTU21D;68284;59.124;37.910;2023-12-28T15:00:29;-2.80;78.85
78896;HTU21D;68284;59.124;37.910;2023-12-28T15:02:56;-2.78;78.97
78896;HTU21D;68284;59.124;37.910;2023-12-28T15:05:26;-2.77;78.88
78896;HTU21D;68284;59.124;37.910;2023-12-28T15:07:53;-2.78;79.01
78896;HTU21D;68284;59.124;37.910;2023-12-28T15:10:23;-2.75;79.08
78896;HTU21D;68284;59.124;37.910;2023-12-28T15:12:50;-2.73;79.06
78896;HTU21D;68284;59.124;37.910;2023-12-28T15:15:19;-2.72;79.08
78896;HTU21D;68284;59.124;37.910;2023-12-28T15:17:46;-2.69;79.09
78896;HTU21D;68284;59.124;37.910;2023-12-28T15:20:13;-2.68;79.07
78896;HTU21D;68284;59.124;37.910;2023-12-28T15:22:45;-2.69;78.93
78896;HTU21D;68284;59.124;37.910;2023-12-28T15:25:13;-2.72;78.92
78896;HTU21D;68284;59.124;37.910;2023-12-28T15:27:40;-2.74;78.96
78896;HTU21D;68284;59.124;37.910;2023-12-28T15:30:08;-2.75;79.04
78896;HTU21D;68284;59.124;37.910;2023-12-28T15:32:39;-2.75;79.11